Tuzla, Bosnia and Herzegovina
Current Conditions -  °F | °C
As of 7:00 PM on Saturday 25 Oct 2014 (Local Time) from LQTZ Reporting Station
Broken Clouds Broken Clouds  
Wind Chill: 45°   Ceiling: 1800
Heat Index: 45°   Visibility: 6mi
Dew Point: 45°   Wind: 3mph
Humidity: 100%   Direction: 130°SE
Pressure: 30.24"   Gusts: NA
Location:  44.54°N, 18.68°E
Report Text: LQTZ 251700Z 13003KT 100V170 9999 SCT012 BKN018 07/07 Q1024
Loading
Personal Weather Stations






























Interactive Weather Map
Tropical Storm Tracking
New forecast layout! Learn more

10-Day Weather Forecast

Advertisements
Track Severe Weather on mobile